Time;durP1;ratioP1;P1;durP2;ratioP2;P2;SDS_P1;SDS_P2;PMS_P1;PMS_P2;Temp;Humidity;BMP_temperature;BMP_pressure;BME280_temperature;BME280_humidity;BME280_pressure;Samples;Min_cycle;Max_cycle;Signal;HPM_P1;HPM_P2
2023/03/26 00:01:04;;;;;;;15.93;2.97;;;8.20;99.90;;;;;;5036843;28;20049;-71
2023/03/26 00:03:32;;;;;;;15.32;2.58;;;8.20;99.90;;;;;;5036816;28;20037;-71
2023/03/26 00:06:06;;;;;;;15.30;2.65;;;8.20;99.90;;;;;;5053196;28;20041;-71
2023/03/26 00:08:36;;;;;;;14.02;2.25;;;8.20;99.90;;;;;;5053312;28;20076;-72
2023/03/26 00:11:05;;;;;;;13.80;2.60;;;8.20;99.90;;;;;;5053273;28;20040;-72
2023/03/26 00:13:32;;;;;;;15.38;2.90;;;8.10;99.90;;;;;;5053096;28;20056;-72
2023/03/26 00:15:58;;;;;;;18.40;2.92;;;8.10;99.90;;;;;;5053088;28;20044;-71
2023/03/26 00:18:29;;;;;;;15.35;2.30;;;8.10;99.90;;;;;;5053148;28;20036;-72
2023/03/26 00:20:58;;;;;;;14.65;2.53;;;8.10;99.90;;;;;;5053390;28;20052;-72
2023/03/26 00:23:25;;;;;;;17.60;3.80;;;8.10;99.90;;;;;;5053033;28;20060;-71
2023/03/26 00:25:52;;;;;;;19.80;3.05;;;8.10;99.90;;;;;;5052947;28;20072;-71
2023/03/26 00:28:21;;;;;;;13.75;2.25;;;8.10;99.90;;;;;;5052977;28;20072;-72
2023/03/26 00:30:47;;;;;;;13.90;2.42;;;8.10;99.90;;;;;;5052991;28;20171;-72
2023/03/26 00:33:20;;;;;;;15.32;2.50;;;8.00;99.90;;;;;;5052899;28;20045;-72
2023/03/26 00:35:57;;;;;;;14.60;2.33;;;8.00;99.90;;;;;;5052856;28;20045;-71
2023/03/26 00:38:23;;;;;;;13.05;2.22;;;8.00;99.90;;;;;;5052971;28;20049;-72
2023/03/26 00:40:50;;;;;;;12.45;2.60;;;8.00;99.90;;;;;;5053090;28;20036;-72
2023/03/26 00:43:18;;;;;;;15.32;2.47;;;8.00;99.90;;;;;;5052980;28;20174;-71
2023/03/26 00:45:51;;;;;;;14.88;2.38;;;8.10;99.90;;;;;;5052580;28;20037;-71
2023/03/26 00:48:17;;;;;;;14.15;2.60;;;8.00;99.90;;;;;;5053035;28;20076;-72
2023/03/26 00:50:46;;;;;;;15.25;3.13;;;8.00;99.90;;;;;;5052937;28;20154;-72
2023/03/26 00:53:12;;;;;;;15.13;2.40;;;8.00;99.90;;;;;;5052613;28;20037;-71
2023/03/26 00:55:43;;;;;;;16.00;2.80;;;7.90;99.90;;;;;;5015879;28;1061383;-72
2023/03/26 00:58:11;;;;;;;13.70;2.13;;;7.90;99.90;;;;;;5053891;28;20037;-72
2023/03/26 01:00:56;;;;;;;14.05;2.25;;;7.90;99.90;;;;;;5053731;28;20053;-72
2023/03/26 01:03:23;;;;;;;13.13;2.25;;;7.80;99.90;;;;;;5053495;28;20041;-72
2023/03/26 01:06:01;;;;;;;11.48;2.80;;;7.80;99.90;;;;;;5053316;28;20119;-71
2023/03/26 01:08:38;;;;;;;18.65;2.90;;;7.80;99.90;;;;;;5053418;28;20045;-72
2023/03/26 01:11:23;;;;;;;18.83;2.53;;;7.70;99.90;;;;;;5053389;28;20044;-71
2023/03/26 01:13:54;;;;;;;16.95;2.50;;;7.80;99.90;;;;;;5053284;28;20044;-72
2023/03/26 01:16:37;;;;;;;14.68;2.45;;;7.70;99.90;;;;;;5053129;28;20040;-71
2023/03/26 01:19:09;;;;;;;14.88;2.55;;;7.70;99.90;;;;;;5036540;28;20585;-72
2023/03/26 01:21:37;;;;;;;14.45;2.90;;;7.60;99.90;;;;;;5053123;28;20497;-72
2023/03/26 01:24:05;;;;;;;13.75;2.40;;;7.60;99.90;;;;;;5053294;28;20044;-72
2023/03/26 01:27:08;;;;;;;17.33;2.30;;;7.60;99.90;;;;;;5054081;28;20095;-72
2023/03/26 01:29:39;;;;;;;13.03;2.50;;;7.60;99.90;;;;;;5053279;28;20449;-72
2023/03/26 01:32:12;;;;;;;12.50;1.92;;;7.50;99.90;;;;;;5053198;28;20079;-71
2023/03/26 01:34:51;;;;;;;16.43;2.63;;;7.50;99.90;;;;;;5036272;28;20033;-71
2023/03/26 01:37:42;;;;;;;13.35;2.55;;;7.40;99.90;;;;;;5069508;28;20287;-71
2023/03/26 01:40:25;;;;;;;16.80;2.78;;;7.40;99.90;;;;;;5053054;28;20041;-72
2023/03/26 01:43:01;;;;;;;12.68;2.35;;;7.40;99.90;;;;;;5052797;28;20138;-71
2023/03/26 01:45:32;;;;;;;21.42;3.00;;;7.40;99.90;;;;;;5052694;28;20413;-71
2023/03/26 01:47:58;;;;;;;14.48;2.60;;;7.30;99.90;;;;;;5052656;28;20126;-72
2023/03/26 01:50:24;;;;;;;16.45;2.85;;;7.30;99.90;;;;;;5052534;28;20110;-72
2023/03/26 01:52:50;;;;;;;15.55;3.00;;;7.30;99.90;;;;;;5052527;28;20132;-72
2023/03/26 01:55:16;;;;;;;15.27;2.65;;;7.20;99.90;;;;;;5052242;28;20041;-72
2023/03/26 01:57:47;;;;;;;15.80;2.78;;;7.20;99.90;;;;;;5052682;28;20049;-72
2023/03/26 02:00:42;;;;;;;10.05;2.25;;;7.20;99.90;;;;;;5052445;28;20409;-72
2023/03/26 02:03:19;;;;;;;15.13;2.47;;;7.20;99.90;;;;;;5050410;28;20524;-72
2023/03/26 02:06:01;;;;;;;15.65;2.67;;;7.30;99.90;;;;;;5052213;28;20055;-71
2023/03/26 02:08:37;;;;;;;17.80;2.58;;;7.30;99.90;;;;;;5052319;28;20040;-71
2023/03/26 02:11:10;;;;;;;18.63;2.75;;;7.30;99.90;;;;;;5052535;28;20175;-71
2023/03/26 02:13:37;;;;;;;13.18;1.90;;;7.30;99.90;;;;;;5052222;28;20044;-72
2023/03/26 02:16:05;;;;;;;13.55;2.53;;;7.30;99.90;;;;;;5052048;28;20516;-72
2023/03/26 02:18:40;;;;;;;14.75;2.30;;;7.30;99.90;;;;;;5052260;28;20135;-72
2023/03/26 02:21:09;;;;;;;13.35;2.15;;;7.30;99.90;;;;;;5035722;28;20095;-72
2023/03/26 02:23:36;;;;;;;12.27;2.08;;;7.30;99.90;;;;;;5052217;28;20149;-71
2023/03/26 02:26:05;;;;;;;13.70;3.08;;;7.30;99.90;;;;;;5051872;28;20048;-71
2023/03/26 02:28:31;;;;;;;14.68;2.58;;;7.40;99.90;;;;;;5051972;28;20571;-72
2023/03/26 02:31:00;;;;;;;14.77;3.08;;;7.40;99.90;;;;;;5052181;28;20079;-72
2023/03/26 02:33:29;;;;;;;16.50;2.20;;;7.40;99.90;;;;;;5051866;28;20111;-72
2023/03/26 02:36:00;;;;;;;16.13;2.97;;;7.50;99.90;;;;;;5035389;28;20124;-72
2023/03/26 02:38:27;;;;;;;16.15;2.63;;;7.50;99.90;;;;;;5051795;28;20083;-72
2023/03/26 02:40:54;;;;;;;12.23;1.88;;;7.50;99.90;;;;;;5051828;28;20102;-72
2023/03/26 02:43:20;;;;;;;13.23;2.40;;;7.40;99.90;;;;;;5051729;28;20124;-71
2023/03/26 02:45:45;;;;;;;15.93;2.65;;;7.40;99.90;;;;;;5051802;28;20128;-72
2023/03/26 02:48:11;;;;;;;14.20;3.03;;;7.50;99.90;;;;;;5051986;28;20397;-72
2023/03/26 02:50:37;;;;;;;15.27;2.60;;;7.50;99.90;;;;;;5051776;28;20087;-72
2023/03/26 02:53:02;;;;;;;16.23;2.75;;;7.50;99.90;;;;;;5035069;28;20041;-72
2023/03/26 02:55:28;;;;;;;15.27;2.65;;;7.50;99.90;;;;;;5051410;28;20045;-72
2023/03/26 02:57:54;;;;;;;13.23;2.58;;;7.50;99.90;;;;;;5051665;28;20124;-72
2023/03/26 03:00:21;;;;;;;17.55;3.20;;;7.50;99.90;;;;;;5051611;28;20120;-72
2023/03/26 03:02:48;;;;;;;20.35;3.75;;;7.60;99.90;;;;;;5051875;28;20140;-71
2023/03/26 03:05:14;;;;;;;17.35;2.25;;;7.60;99.90;;;;;;5051726;28;20166;-71
2023/03/26 03:07:39;;;;;;;13.75;2.55;;;7.60;99.90;;;;;;5051553;28;20516;-71
2023/03/26 03:10:08;;;;;;;17.08;3.22;;;7.60;99.90;;;;;;5051516;28;20116;-71
2023/03/26 03:12:35;;;;;;;16.40;2.85;;;7.60;99.90;;;;;;5051707;28;20041;-71
2023/03/26 03:15:02;;;;;;;15.63;3.08;;;7.60;99.90;;;;;;5051635;28;20071;-71
2023/03/26 03:17:27;;;;;;;18.02;3.13;;;7.60;99.90;;;;;;5051408;28;20049;-71
2023/03/26 03:19:53;;;;;;;13.32;2.92;;;7.60;99.90;;;;;;5051660;28;20124;-71
2023/03/26 03:22:18;;;;;;;16.00;2.67;;;7.60;99.90;;;;;;5051426;28;20401;-72
2023/03/26 03:24:45;;;;;;;13.45;2.78;;;7.50;99.90;;;;;;5051180;28;20043;-71
2023/03/26 03:27:11;;;;;;;18.35;2.60;;;7.60;99.90;;;;;;5051359;28;20116;-72
2023/03/26 03:29:37;;;;;;;15.57;2.58;;;7.50;99.90;;;;;;5051304;28;20102;-72
2023/03/26 03:32:03;;;;;;;16.73;2.85;;;7.40;99.90;;;;;;5051575;28;20112;-71
2023/03/26 03:34:29;;;;;;;15.85;2.90;;;7.40;99.90;;;;;;5051186;28;20124;-71
2023/03/26 03:36:54;;;;;;;12.48;2.58;;;7.40;99.90;;;;;;5051280;28;20134;-72
2023/03/26 03:39:20;;;;;;;13.52;2.60;;;7.40;99.90;;;;;;5051258;28;20044;-72
2023/03/26 03:41:46;;;;;;;12.95;2.40;;;7.40;99.90;;;;;;5051225;28;20091;-71
2023/03/26 03:44:11;;;;;;;13.13;2.47;;;7.40;99.90;;;;;;5051138;28;20044;-71
2023/03/26 03:46:37;;;;;;;14.73;2.42;;;7.30;99.90;;;;;;5051074;28;20120;-71
2023/03/26 03:49:03;;;;;;;10.52;2.20;;;7.20;99.90;;;;;;5052029;28;20037;-71
2023/03/26 03:51:28;;;;;;;15.18;3.33;;;7.20;99.90;;;;;;5055101;28;20115;-71
2023/03/26 03:53:54;;;;;;;11.75;2.13;;;7.20;99.90;;;;;;5054744;28;20490;-72
2023/03/26 03:56:23;;;;;;;16.73;2.13;;;7.10;99.90;;;;;;5054627;28;20116;-72
2023/03/26 03:58:49;;;;;;;12.10;2.30;;;7.10;99.90;;;;;;5054682;28;20056;-72
2023/03/26 04:01:16;;;;;;;14.00;2.58;;;7.00;99.90;;;;;;5054652;28;20128;-72
2023/03/26 04:03:44;;;;;;;13.80;2.28;;;7.00;99.90;;;;;;5054587;28;20049;-72
2023/03/26 04:06:11;;;;;;;12.45;2.80;;;6.90;99.90;;;;;;5054520;28;20044;-72
2023/03/26 04:08:37;;;;;;;14.43;2.58;;;6.90;99.90;;;;;;5054735;28;20555;-72
2023/03/26 04:11:03;;;;;;;11.23;2.13;;;6.90;99.90;;;;;;5054423;28;20033;-71
2023/03/26 04:13:28;;;;;;;15.18;2.75;;;6.80;99.90;;;;;;5054420;28;20041;-72
2023/03/26 04:15:55;;;;;;;13.77;2.47;;;6.80;99.90;;;;;;5054350;28;20060;-71
2023/03/26 04:18:22;;;;;;;15.38;3.22;;;6.90;99.90;;;;;;5054335;28;20055;-71
2023/03/26 04:20:48;;;;;;;18.27;2.78;;;6.80;99.90;;;;;;5054502;28;20060;-72
2023/03/26 04:23:16;;;;;;;15.18;2.80;;;6.80;99.90;;;;;;5054292;28;20037;-72
2023/03/26 04:25:49;;;;;;;10.82;2.00;;;6.80;99.90;;;;;;5054007;28;20033;-71
2023/03/26 04:28:27;;;;;;;13.95;2.10;;;6.80;99.90;;;;;;5037895;28;20040;-71
2023/03/26 04:30:55;;;;;;;8.18;1.90;;;6.80;99.90;;;;;;5054132;28;20501;-72
2023/03/26 04:33:23;;;;;;;11.93;2.20;;;6.70;99.90;;;;;;5054043;28;20033;-72
2023/03/26 04:35:49;;;;;;;13.75;2.78;;;6.70;99.90;;;;;;5053984;28;20052;-71
2023/03/26 04:38:16;;;;;;;14.30;2.30;;;6.70;99.90;;;;;;5054215;28;20049;-72
2023/03/26 04:40:46;;;;;;;11.93;2.80;;;6.80;99.90;;;;;;5053977;28;20084;-72
2023/03/26 04:43:15;;;;;;;21.25;3.20;;;6.80;99.90;;;;;;5054143;28;20049;-72
2023/03/26 04:45:41;;;;;;;11.70;2.28;;;6.80;99.90;;;;;;5053691;28;20524;-71
2023/03/26 04:48:13;;;;;;;12.82;2.78;;;6.80;99.90;;;;;;5053807;28;20037;-72
2023/03/26 04:50:42;;;;;;;17.63;2.95;;;6.80;99.90;;;;;;5053751;28;20101;-72
2023/03/26 04:53:12;;;;;;;14.32;2.90;;;6.80;99.90;;;;;;5053700;28;20501;-72
2023/03/26 04:55:47;;;;;;;11.57;2.75;;;6.90;99.90;;;;;;5053888;28;20536;-72
2023/03/26 04:58:13;;;;;;;16.42;2.75;;;6.90;99.90;;;;;;5037097;28;20122;-72
2023/03/26 05:00:40;;;;;;;16.02;2.75;;;6.90;99.90;;;;;;5052597;28;20170;-72
2023/03/26 05:03:10;;;;;;;16.83;3.40;;;6.90;99.90;;;;;;5053558;28;20043;-73
2023/03/26 05:05:36;;;;;;;18.20;3.13;;;6.90;99.90;;;;;;5053324;28;20037;-72
2023/03/26 05:08:02;;;;;;;11.57;2.65;;;7.00;99.90;;;;;;5053664;28;20032;-72
2023/03/26 05:10:27;;;;;;;14.98;2.67;;;7.00;99.90;;;;;;5053374;28;20438;-72
2023/03/26 05:12:53;;;;;;;17.90;2.60;;;7.00;99.90;;;;;;5053311;28;20032;-71
2023/03/26 05:15:19;;;;;;;10.88;2.53;;;7.00;99.90;;;;;;5053183;28;20079;-71
2023/03/26 05:17:45;;;;;;;9.82;2.22;;;7.00;99.90;;;;;;5053471;28;20041;-72
2023/03/26 05:20:20;;;;;;;15.10;2.85;;;7.00;99.90;;;;;;5053172;28;20413;-72
2023/03/26 05:22:49;;;;;;;18.75;2.78;;;7.00;99.90;;;;;;5053085;28;20505;-72
2023/03/26 05:25:16;;;;;;;13.15;2.85;;;7.00;99.90;;;;;;5052922;28;20052;-71
2023/03/26 05:27:42;;;;;;;9.05;2.47;;;7.00;99.90;;;;;;5053066;28;20132;-72
2023/03/26 05:30:08;;;;;;;19.65;2.85;;;7.00;99.90;;;;;;5036311;28;20584;-72
2023/03/26 05:32:34;;;;;;;12.13;3.33;;;7.10;99.90;;;;;;5052966;28;20041;-72
2023/03/26 05:35:00;;;;;;;14.57;2.92;;;7.10;99.90;;;;;;5052829;28;20045;-71
2023/03/26 05:37:29;;;;;;;19.58;3.28;;;7.10;99.90;;;;;;5036209;28;20097;-72
2023/03/26 05:39:56;;;;;;;14.32;3.28;;;7.10;99.90;;;;;;5052773;28;20041;-72
2023/03/26 05:42:22;;;;;;;13.10;2.80;;;7.10;99.90;;;;;;5052764;28;20044;-71
2023/03/26 05:44:47;;;;;;;15.40;2.95;;;7.10;99.90;;;;;;5052872;28;20041;-71
2023/03/26 05:47:13;;;;;;;17.85;3.60;;;7.20;99.90;;;;;;5052930;28;20497;-72
2023/03/26 05:49:38;;;;;;;12.63;3.08;;;7.10;99.90;;;;;;5052591;28;20429;-72
2023/03/26 05:52:04;;;;;;;13.75;3.03;;;7.20;99.90;;;;;;5052831;28;20037;-72
2023/03/26 05:54:30;;;;;;;11.93;2.45;;;7.20;99.90;;;;;;5052389;28;20040;-71
2023/03/26 05:56:56;;;;;;;13.93;3.40;;;7.20;99.90;;;;;;5052378;28;20090;-72
2023/03/26 05:59:22;;;;;;;13.40;3.30;;;7.20;99.90;;;;;;5052398;28;20063;-72
2023/03/26 06:01:49;;;;;;;12.43;3.25;;;7.20;99.90;;;;;;5052613;28;20136;-71
2023/03/26 06:04:19;;;;;;;13.77;3.28;;;7.20;99.90;;;;;;5035657;28;20417;-71
2023/03/26 06:06:44;;;;;;;13.13;3.10;;;7.20;99.90;;;;;;5052226;28;20050;-72
2023/03/26 06:09:13;;;;;;;17.77;3.72;;;7.30;99.90;;;;;;5052250;28;20036;-72
2023/03/26 06:11:39;;;;;;;16.88;3.40;;;7.30;99.90;;;;;;5051858;28;20033;-71
2023/03/26 06:14:05;;;;;;;17.73;3.85;;;7.30;99.90;;;;;;5052138;28;20555;-72
2023/03/26 06:16:32;;;;;;;16.52;3.53;;;7.40;99.90;;;;;;5035467;28;20041;-72
2023/03/26 06:18:58;;;;;;;17.83;3.72;;;7.40;99.90;;;;;;5052371;28;20128;-72
2023/03/26 06:21:28;;;;;;;15.30;3.70;;;7.40;99.90;;;;;;5052103;28;20473;-72
2023/03/26 06:23:54;;;;;;;15.25;3.42;;;7.50;99.90;;;;;;5052056;28;20558;-72
2023/03/26 06:26:20;;;;;;;15.82;3.40;;;7.50;99.90;;;;;;5051999;28;20045;-71
2023/03/26 06:28:46;;;;;;;12.30;3.10;;;7.50;99.90;;;;;;5051968;28;20520;-72
2023/03/26 06:31:12;;;;;;;16.60;3.58;;;7.50;99.90;;;;;;5051947;28;20040;-72
2023/03/26 06:33:37;;;;;;;17.70;3.60;;;7.60;99.90;;;;;;5052132;28;20095;-73
2023/03/26 06:36:03;;;;;;;18.65;3.20;;;7.60;99.90;;;;;;5052070;28;20047;-72
2023/03/26 06:38:29;;;;;;;21.70;3.72;;;7.70;99.90;;;;;;5051888;28;20601;-72
2023/03/26 06:41:02;;;;;;;18.67;3.10;;;7.70;99.90;;;;;;5051823;28;20075;-72
2023/03/26 06:43:27;;;;;;;18.23;3.35;;;7.80;99.90;;;;;;5051871;28;20047;-72
2023/03/26 06:45:53;;;;;;;17.48;3.17;;;7.80;99.90;;;;;;5051808;28;20041;-72
2023/03/26 06:48:18;;;;;;;21.70;4.07;;;7.80;99.90;;;;;;5051780;28;20498;-72
2023/03/26 06:50:45;;;;;;;20.10;3.30;;;7.80;99.90;;;;;;5052015;28;20033;-72
2023/03/26 06:53:11;;;;;;;21.80;3.88;;;7.90;99.90;;;;;;5051721;28;20041;-72
2023/03/26 06:55:36;;;;;;;18.20;3.25;;;7.80;99.90;;;;;;5051793;28;20106;-72
2023/03/26 06:58:02;;;;;;;21.95;3.75;;;7.90;99.90;;;;;;5035149;28;20404;-73
2023/03/26 07:00:27;;;;;;;21.33;3.50;;;7.90;99.90;;;;;;5051921;28;20068;-73
2023/03/26 07:02:53;;;;;;;19.00;3.67;;;7.90;99.90;;;;;;5035074;28;20485;-71
2023/03/26 07:05:19;;;;;;;19.27;3.92;;;7.90;99.90;;;;;;5051540;28;20033;-72
2023/03/26 07:07:44;;;;;;;19.52;3.45;;;7.90;99.90;;;;;;5051593;28;20033;-73
2023/03/26 07:10:10;;;;;;;18.17;3.50;;;7.90;99.90;;;;;;5051896;28;20047;-72
2023/03/26 07:12:35;;;;;;;23.83;3.90;;;7.90;99.90;;;;;;5051670;28;20087;-72
2023/03/26 07:15:03;;;;;;;23.35;4.07;;;7.90;99.90;;;;;;5051656;28;20044;-72
2023/03/26 07:17:29;;;;;;;22.70;3.88;;;7.90;99.90;;;;;;5051530;28;20057;-72
2023/03/26 07:19:54;;;;;;;22.33;3.38;;;7.90;99.90;;;;;;5051783;28;20037;-72
2023/03/26 07:22:22;;;;;;;21.42;3.38;;;7.90;99.90;;;;;;5051452;28;20035;-72
2023/03/26 07:24:48;;;;;;;18.75;3.13;;;7.90;99.90;;;;;;5053448;28;20501;-71
2023/03/26 07:27:42;;;;;;;20.25;3.63;;;8.00;99.90;;;;;;5055265;28;20045;-72
2023/03/26 07:30:19;;;;;;;25.42;3.17;;;8.00;99.90;;;;;;5055514;28;20498;-72
2023/03/26 07:32:56;;;;;;;19.95;3.20;;;8.00;99.90;;;;;;5055565;28;20045;-72
2023/03/26 07:35:35;;;;;;;24.00;4.35;;;8.00;99.90;;;;;;5055139;28;20044;-72
2023/03/26 07:38:32;;;;;;;20.60;3.92;;;8.00;99.90;;;;;;5055419;28;20067;-72
2023/03/26 07:41:15;;;;;;;17.40;3.17;;;8.10;99.90;;;;;;5055509;28;20041;-72
2023/03/26 07:43:44;;;;;;;16.25;3.63;;;8.10;99.90;;;;;;5055332;28;20047;-73
2023/03/26 07:46:12;;;;;;;22.35;4.32;;;8.10;99.90;;;;;;5054857;28;20052;-71
2023/03/26 07:48:48;;;;;;;22.20;3.10;;;8.20;99.90;;;;;;5054948;28;20044;-72
2023/03/26 07:51:14;;;;;;;21.23;3.28;;;8.30;99.90;;;;;;5054972;28;20041;-72
2023/03/26 07:53:40;;;;;;;18.42;3.45;;;8.30;99.90;;;;;;5054852;28;20056;-72
2023/03/26 07:56:14;;;;;;;20.42;3.15;;;8.40;99.90;;;;;;5054633;28;20045;-72
2023/03/26 07:58:52;;;;;;;19.40;2.58;;;8.50;99.90;;;;;;5054752;28;20417;-72
2023/03/26 08:01:20;;;;;;;21.15;3.63;;;8.50;99.90;;;;;;5054761;28;20585;-72
2023/03/26 08:03:52;;;;;;;16.70;2.80;;;8.50;99.90;;;;;;5054697;28;20044;-72
2023/03/26 08:06:32;;;;;;;19.92;3.10;;;8.60;99.90;;;;;;5054554;28;20124;-72
2023/03/26 08:09:15;;;;;;;21.38;4.32;;;8.60;99.90;;;;;;5054623;28;20041;-72
2023/03/26 08:11:59;;;;;;;18.75;3.45;;;8.60;99.90;;;;;;5054606;28;20091;-71
2023/03/26 08:14:32;;;;;;;22.35;3.47;;;8.50;99.90;;;;;;5054536;28;20136;-71
2023/03/26 08:17:08;;;;;;;23.95;3.40;;;8.50;99.90;;;;;;5054704;28;20475;-72
2023/03/26 08:19:42;;;;;;;19.80;4.15;;;8.50;99.90;;;;;;5054453;28;20540;-72
2023/03/26 08:22:14;;;;;;;19.15;3.90;;;8.60;99.90;;;;;;5054383;28;20079;-73
2023/03/26 08:24:58;;;;;;;18.60;3.10;;;8.50;99.90;;;;;;5054531;28;20588;-72
2023/03/26 08:27:38;;;;;;;16.83;3.10;;;8.60;99.90;;;;;;5054315;28;20287;-72
2023/03/26 08:30:11;;;;;;;22.23;3.03;;;8.60;99.90;;;;;;5054249;28;20143;-72
2023/03/26 08:32:37;;;;;;;21.95;3.92;;;8.60;99.90;;;;;;5054206;28;20037;-73
2023/03/26 08:35:03;;;;;;;19.60;2.83;;;8.60;99.90;;;;;;5053747;28;20068;-71
2023/03/26 08:37:29;;;;;;;18.48;2.60;;;8.60;99.90;;;;;;5037463;28;20032;-72
2023/03/26 08:39:55;;;;;;;23.15;3.03;;;8.60;99.90;;;;;;5054048;28;20047;-72
2023/03/26 08:42:20;;;;;;;25.25;3.97;;;8.50;99.90;;;;;;5053991;28;20037;-72
2023/03/26 08:45:01;;;;;;;16.08;3.40;;;8.50;99.90;;;;;;5053847;28;20032;-71
2023/03/26 08:47:41;;;;;;;15.40;2.90;;;8.60;99.90;;;;;;5053912;28;20049;-72
2023/03/26 08:50:35;;;;;;;20.58;3.05;;;8.70;99.90;;;;;;5054107;28;20056;-72
2023/03/26 08:53:19;;;;;;;18.80;2.75;;;8.70;99.90;;;;;;5053848;28;20466;-72
2023/03/26 08:56:08;;;;;;;20.05;2.78;;;8.80;99.90;;;;;;5053498;28;20551;-72
2023/03/26 08:58:39;;;;;;;20.52;3.15;;;8.90;99.90;;;;;;5053678;28;20045;-72
2023/03/26 09:01:22;;;;;;;17.92;2.95;;;8.90;99.90;;;;;;5053622;28;20041;-71
2023/03/26 09:04:13;;;;;;;21.33;2.83;;;8.90;99.90;;;;;;5053899;28;20068;-72
2023/03/26 09:07:06;;;;;;;15.43;2.60;;;9.00;99.90;;;;;;5053492;28;20080;-72
2023/03/26 09:10:00;;;;;;;13.00;2.58;;;9.00;99.90;;;;;;5053764;28;20045;-71
2023/03/26 09:12:32;;;;;;;19.48;2.95;;;9.00;99.90;;;;;;5053430;28;20057;-72
2023/03/26 09:15:27;;;;;;;16.83;2.63;;;9.00;99.90;;;;;;5053282;28;20073;-71
2023/03/26 09:18:08;;;;;;;17.10;2.90;;;9.10;99.90;;;;;;5039435;28;20120;-72
2023/03/26 09:21:05;;;;;;;21.52;2.88;;;9.20;99.90;;;;;;5053252;28;20470;-72
2023/03/26 09:24:00;;;;;;;18.40;2.78;;;9.20;99.90;;;;;;5053498;28;20040;-72
2023/03/26 09:26:42;;;;;;;16.83;4.15;;;9.30;99.90;;;;;;5053118;28;20051;-72
2023/03/26 09:29:33;;;;;;;15.73;2.63;;;9.30;99.90;;;;;;5053090;28;20037;-72
2023/03/26 09:32:36;;;;;;;19.75;3.35;;;9.30;99.90;;;;;;5053270;28;20048;-73
2023/03/26 09:35:11;;;;;;;16.05;3.10;;;9.30;99.90;;;;;;5052910;28;20391;-71
2023/03/26 09:38:10;;;;;;;18.95;3.72;;;9.30;99.90;;;;;;5053224;28;20037;-72
2023/03/26 09:41:02;;;;;;;19.92;3.53;;;9.40;99.90;;;;;;5046156;28;20132;-72
2023/03/26 09:43:40;;;;;;;14.73;2.60;;;9.40;99.90;;;;;;5052906;28;20120;-73
2023/03/26 09:46:16;;;;;;;16.83;2.97;;;9.30;99.90;;;;;;5052452;28;20425;-72
2023/03/26 09:48:48;;;;;;;17.38;2.75;;;9.40;99.90;;;;;;5052490;28;20516;-72
2023/03/26 09:51:37;;;;;;;11.93;2.20;;;9.40;99.90;;;;;;5052998;28;20091;-72
2023/03/26 09:55:01;;;;;;;18.35;2.78;;;9.50;99.90;;;;;;5052654;28;20628;-71
2023/03/26 09:57:35;;;;;;;19.52;3.22;;;9.50;99.90;;;;;;5015379;28;20042;-72
2023/03/26 10:00:26;;;;;;;15.77;2.90;;;9.50;99.90;;;;;;5015498;28;20077;-73
2023/03/26 10:03:07;;;;;;;18.20;2.95;;;9.60;99.90;;;;;;5045663;28;20063;-71
2023/03/26 10:05:54;;;;;;;14.05;2.85;;;9.60;99.90;;;;;;5052274;28;20469;-72
2023/03/26 10:08:29;;;;;;;15.30;2.83;;;9.60;99.90;;;;;;5052557;28;20047;-72
2023/03/26 10:11:01;;;;;;;11.63;2.13;;;9.60;99.90;;;;;;5052455;28;20090;-72
2023/03/26 10:14:06;;;;;;;15.45;2.38;;;9.60;99.90;;;;;;5052303;28;20044;-72
2023/03/26 10:16:38;;;;;;;13.60;2.55;;;9.70;99.90;;;;;;5052466;28;20087;-71
2023/03/26 10:19:29;;;;;;;12.10;2.50;;;9.80;99.90;;;;;;5052487;28;20055;-72
2023/03/26 10:22:08;;;;;;;20.05;3.13;;;9.80;99.90;;;;;;5052397;28;20040;-72
2023/03/26 10:25:01;;;;;;;10.80;2.38;;;9.80;99.90;;;;;;5052157;28;20123;-72
2023/03/26 10:27:53;;;;;;;14.82;3.70;;;9.90;99.90;;;;;;5052228;28;20052;-72
2023/03/26 10:30:25;;;;;;;15.02;2.95;;;9.90;99.90;;;;;;5052739;28;20036;-71
2023/03/26 10:33:17;;;;;;;14.85;2.85;;;10.00;99.90;;;;;;5052009;28;20079;-72
2023/03/26 10:35:59;;;;;;;14.00;2.50;;;10.00;99.90;;;;;;5051805;28;20077;-71
2023/03/26 10:38:56;;;;;;;16.20;2.47;;;10.00;99.90;;;;;;5052271;28;20044;-72
2023/03/26 10:41:53;;;;;;;18.08;2.65;;;10.00;99.90;;;;;;5052142;28;20088;-72
2023/03/26 10:44:42;;;;;;;12.55;2.35;;;10.10;99.90;;;;;;5031323;28;20056;-76
2023/03/26 10:47:26;;;;;;;15.43;2.45;;;10.10;99.90;;;;;;5051761;28;20127;-72
2023/03/26 10:50:30;;;;;;;14.40;3.03;;;10.20;99.90;;;;;;5051777;28;20052;-72
2023/03/26 10:53:40;;;;;;;10.77;2.40;;;10.40;99.90;;;;;;5014527;28;20049;-71
2023/03/26 10:56:33;;;;;;;9.30;2.25;;;10.40;99.80;;;;;;5051837;28;20053;-72
2023/03/26 10:59:07;;;;;;;14.65;2.53;;;10.40;99.70;;;;;;5054277;28;20055;-72
2023/03/26 11:01:44;;;;;;;16.45;2.97;;;10.30;99.90;;;;;;5055895;28;20497;-71
2023/03/26 11:04:48;;;;;;;12.07;2.15;;;10.40;99.90;;;;;;5055766;28;20044;-71
2023/03/26 11:07:37;;;;;;;11.73;2.42;;;10.50;99.40;;;;;;5055707;28;20041;-72
2023/03/26 11:10:03;;;;;;;16.67;2.25;;;10.50;99.20;;;;;;5055743;28;20048;-72
2023/03/26 11:12:53;;;;;;;14.07;2.17;;;10.50;99.10;;;;;;5055684;28;20037;-72
2023/03/26 11:15:36;;;;;;;15.20;2.78;;;10.50;98.10;;;;;;5055809;28;20040;-71
2023/03/26 11:18:32;;;;;;;19.90;2.90;;;10.50;98.20;;;;;;5055648;28;20497;-72
2023/03/26 11:21:34;;;;;;;13.18;2.53;;;10.50;98.30;;;;;;5038922;28;20037;-72
2023/03/26 11:24:25;;;;;;;15.35;2.50;;;10.40;97.80;;;;;;5055510;28;20043;-72
2023/03/26 11:27:26;;;;;;;16.33;3.33;;;10.30;98.00;;;;;;5055317;28;20051;-72
2023/03/26 11:30:00;;;;;;;14.02;2.75;;;10.30;97.80;;;;;;5038312;28;20125;-72
2023/03/26 11:32:40;;;;;;;15.77;2.92;;;10.20;97.80;;;;;;5038700;28;20408;-72
2023/03/26 11:35:33;;;;;;;15.85;4.03;;;10.10;97.90;;;;;;5055475;28;20036;-71
2023/03/26 11:38:04;;;;;;;16.63;2.72;;;10.10;97.70;;;;;;5055239;28;20037;-71
2023/03/26 11:40:40;;;;;;;15.63;3.00;;;10.00;98.00;;;;;;5055160;28;20048;-72
2023/03/26 11:43:09;;;;;;;24.20;3.47;;;10.00;97.80;;;;;;5055104;28;20522;-72
2023/03/26 11:45:38;;;;;;;16.33;2.45;;;10.00;97.70;;;;;;5054868;28;20410;-71
2023/03/26 11:48:17;;;;;;;12.52;2.70;;;10.00;97.60;;;;;;5038427;28;20082;-72
2023/03/26 11:50:46;;;;;;;15.38;3.08;;;9.90;97.30;;;;;;5055263;28;20044;-72
2023/03/26 11:53:18;;;;;;;20.17;2.80;;;9.90;97.30;;;;;;5054938;28;20116;-72
2023/03/26 11:55:58;;;;;;;14.48;2.88;;;9.90;97.00;;;;;;5054689;28;20045;-72
2023/03/26 11:58:30;;;;;;;14.07;2.70;;;9.90;97.20;;;;;;5054899;28;20041;-72
2023/03/26 12:00:55;;;;;;;14.38;2.80;;;9.90;96.70;;;;;;5055087;28;20177;-72
2023/03/26 12:03:22;;;;;;;17.52;3.20;;;9.90;96.60;;;;;;5054807;28;20519;-72
2023/03/26 12:05:57;;;;;;;15.70;2.65;;;9.90;96.20;;;;;;5071185;28;20501;-72
2023/03/26 12:08:33;;;;;;;15.55;2.83;;;9.90;96.10;;;;;;5054722;28;20041;-72
2023/03/26 12:11:10;;;;;;;11.70;2.10;;;9.90;96.00;;;;;;5053944;28;20045;-72
2023/03/26 12:13:43;;;;;;;14.05;2.80;;;9.90;95.90;;;;;;5054835;28;20044;-72
2023/03/26 12:16:16;;;;;;;;;;;9.90;96.00;;;;;;5055199;28;20037;-72
2023/03/26 12:18:44;;;;;;;18.02;3.67;;;9.80;95.50;;;;;;5054441;28;20317;-72
2023/03/26 12:21:16;;;;;;;13.23;2.60;;;9.80;96.30;;;;;;5054417;28;20037;-72
2023/03/26 12:24:05;;;;;;;10.13;2.25;;;9.90;95.70;;;;;;5054394;28;20044;-71
2023/03/26 12:26:40;;;;;;;14.35;2.53;;;9.80;95.60;;;;;;5054181;28;20076;-71
2023/03/26 12:29:11;;;;;;;12.50;2.30;;;9.90;95.80;;;;;;5054580;28;20501;-72
2023/03/26 12:31:45;;;;;;;14.98;2.70;;;9.90;95.60;;;;;;5054247;28;20056;-72
2023/03/26 12:34:17;;;;;;;16.02;2.65;;;10.00;95.30;;;;;;5054105;28;20045;-71
2023/03/26 12:36:58;;;;;;;11.18;2.35;;;10.00;95.30;;;;;;5054123;28;20049;-72
2023/03/26 12:39:29;;;;;;;14.57;2.10;;;10.00;95.00;;;;;;5054897;28;20371;-72
2023/03/26 12:41:57;;;;;;;16.35;2.67;;;9.90;94.70;;;;;;5037384;28;20083;-71
2023/03/26 12:44:35;;;;;;;19.20;2.85;;;9.90;94.70;;;;;;5054163;28;20049;-71
2023/03/26 12:47:26;;;;;;;12.77;2.50;;;9.80;93.90;;;;;;5053900;28;20064;-71
2023/03/26 12:49:53;;;;;;;10.68;2.03;;;9.80;94.40;;;;;;5053923;28;20099;-72
2023/03/26 12:52:41;;;;;;;16.17;2.60;;;9.80;94.70;;;;;;5053837;28;20520;-72
2023/03/26 12:55:20;;;;;;;10.93;1.85;;;10.00;94.60;;;;;;5053839;28;20399;-71
2023/03/26 12:57:53;;;;;;;10.77;2.35;;;10.00;94.00;;;;;;5053744;28;20551;-72
2023/03/26 13:00:43;;;;;;;12.02;2.40;;;10.10;93.60;;;;;;5037154;28;20079;-72
2023/03/26 13:03:30;;;;;;;17.70;3.08;;;10.00;93.50;;;;;;5053672;28;20044;-71
2023/03/26 13:06:24;;;;;;;12.43;2.22;;;9.90;93.40;;;;;;5053455;28;20047;-72
2023/03/26 13:08:56;;;;;;;17.55;2.22;;;9.90;93.60;;;;;;5053567;28;20048;-72
2023/03/26 13:11:37;;;;;;;13.35;2.13;;;9.80;93.20;;;;;;5053796;28;20045;-72
2023/03/26 13:14:21;;;;;;;18.08;2.58;;;9.80;93.10;;;;;;5053469;28;20571;-71
2023/03/26 13:17:08;;;;;;;9.27;2.17;;;9.80;93.70;;;;;;5053382;28;20136;-71
2023/03/26 13:19:42;;;;;;;12.15;1.80;;;9.90;92.00;;;;;;5053620;28;20087;-72